sensor_id;sensor_type;location;lat;lon;timestamp;P1;durP1;ratioP1;P2;durP2;ratioP2
76348;SDS011;65172;46.764;15.406;2023-09-19T00:01:15;22.33;;;5.80;;
76348;SDS011;65172;46.764;15.406;2023-09-19T00:03:44;19.88;;;5.38;;
76348;SDS011;65172;46.764;15.406;2023-09-19T00:06:10;22.08;;;5.90;;
76348;SDS011;65172;46.764;15.406;2023-09-19T00:08:38;22.88;;;6.13;;
76348;SDS011;65172;46.764;15.406;2023-09-19T00:11:03;15.77;;;5.22;;
76348;SDS011;65172;46.764;15.406;2023-09-19T00:13:29;19.23;;;4.97;;
76348;SDS011;65172;46.764;15.406;2023-09-19T00:15:56;31.83;;;5.30;;
76348;SDS011;65172;46.764;15.406;2023-09-19T00:18:24;19.88;;;5.72;;
76348;SDS011;65172;46.764;15.406;2023-09-19T00:20:57;22.83;;;6.13;;
76348;SDS011;65172;46.764;15.406;2023-09-19T00:23:23;16.98;;;5.35;;
76348;SDS011;65172;46.764;15.406;2023-09-19T00:25:49;24.25;;;6.25;;
76348;SDS011;65172;46.764;15.406;2023-09-19T00:28:16;18.05;;;5.60;;
76348;SDS011;65172;46.764;15.406;2023-09-19T00:30:43;21.90;;;5.80;;
76348;SDS011;65172;46.764;15.406;2023-09-19T00:33:10;16.92;;;5.63;;
76348;SDS011;65172;46.764;15.406;2023-09-19T00:35:36;16.33;;;4.93;;
76348;SDS011;65172;46.764;15.406;2023-09-19T00:38:02;16.10;;;5.90;;
76348;SDS011;65172;46.764;15.406;2023-09-19T00:40:29;27.48;;;5.57;;
76348;SDS011;65172;46.764;15.406;2023-09-19T00:42:57;19.10;;;5.95;;
76348;SDS011;65172;46.764;15.406;2023-09-19T00:45:25;13.63;;;5.05;;
76348;SDS011;65172;46.764;15.406;2023-09-19T00:47:50;20.60;;;5.45;;
76348;SDS011;65172;46.764;15.406;2023-09-19T00:50:21;23.92;;;6.30;;
76348;SDS011;65172;46.764;15.406;2023-09-19T00:52:48;19.73;;;5.80;;
76348;SDS011;65172;46.764;15.406;2023-09-19T00:55:15;14.02;;;4.80;;
76348;SDS011;65172;46.764;15.406;2023-09-19T00:57:44;20.23;;;6.43;;
76348;SDS011;65172;46.764;15.406;2023-09-19T01:00:12;21.08;;;5.55;;
76348;SDS011;65172;46.764;15.406;2023-09-19T01:02:44;22.23;;;5.65;;
76348;SDS011;65172;46.764;15.406;2023-09-19T01:05:10;19.23;;;5.68;;
76348;SDS011;65172;46.764;15.406;2023-09-19T01:07:35;16.48;;;5.53;;
76348;SDS011;65172;46.764;15.406;2023-09-19T01:10:04;17.58;;;5.82;;
76348;SDS011;65172;46.764;15.406;2023-09-19T01:13:18;20.48;;;5.80;;
76348;SDS011;65172;46.764;15.406;2023-09-19T01:26:18;20.73;;;5.47;;
76348;SDS011;65172;46.764;15.406;2023-09-19T01:32:06;17.83;;;5.60;;
76348;SDS011;65172;46.764;15.406;2023-09-19T01:37:15;17.98;;;5.05;;
76348;SDS011;65172;46.764;15.406;2023-09-19T01:39:48;19.98;;;5.32;;
76348;SDS011;65172;46.764;15.406;2023-09-19T01:45:09;22.10;;;5.50;;
76348;SDS011;65172;46.764;15.406;2023-09-19T01:47:56;19.15;;;5.43;;
76348;SDS011;65172;46.764;15.406;2023-09-19T01:55:53;13.07;;;5.30;;
76348;SDS011;65172;46.764;15.406;2023-09-19T02:01:01;21.60;;;6.15;;
76348;SDS011;65172;46.764;15.406;2023-09-19T02:03:27;21.85;;;6.25;;
76348;SDS011;65172;46.764;15.406;2023-09-19T02:05:54;14.82;;;5.55;;
76348;SDS011;65172;46.764;15.406;2023-09-19T02:08:20;17.52;;;6.03;;
76348;SDS011;65172;46.764;15.406;2023-09-19T02:10:48;29.08;;;6.55;;
76348;SDS011;65172;46.764;15.406;2023-09-19T02:13:15;17.45;;;7.05;;
76348;SDS011;65172;46.764;15.406;2023-09-19T02:15:43;19.90;;;5.78;;
76348;SDS011;65172;46.764;15.406;2023-09-19T02:18:12;16.02;;;4.68;;
76348;SDS011;65172;46.764;15.406;2023-09-19T02:20:38;16.65;;;5.28;;
76348;SDS011;65172;46.764;15.406;2023-09-19T02:23:05;16.23;;;5.18;;
76348;SDS011;65172;46.764;15.406;2023-09-19T02:25:30;11.73;;;4.72;;
76348;SDS011;65172;46.764;15.406;2023-09-19T02:27:57;12.80;;;4.13;;
76348;SDS011;65172;46.764;15.406;2023-09-19T02:30:24;13.48;;;4.43;;
76348;SDS011;65172;46.764;15.406;2023-09-19T02:32:52;12.10;;;4.90;;
76348;SDS011;65172;46.764;15.406;2023-09-19T02:35:18;15.63;;;4.55;;
76348;SDS011;65172;46.764;15.406;2023-09-19T02:37:47;15.35;;;4.53;;
76348;SDS011;65172;46.764;15.406;2023-09-19T02:40:12;15.73;;;4.78;;
76348;SDS011;65172;46.764;15.406;2023-09-19T02:42:52;15.63;;;6.28;;
76348;SDS011;65172;46.764;15.406;2023-09-19T02:45:19;17.02;;;6.72;;
76348;SDS011;65172;46.764;15.406;2023-09-19T02:47:48;20.17;;;5.43;;
76348;SDS011;65172;46.764;15.406;2023-09-19T02:50:14;12.98;;;6.07;;
76348;SDS011;65172;46.764;15.406;2023-09-19T02:52:44;18.58;;;5.88;;
76348;SDS011;65172;46.764;15.406;2023-09-19T02:55:14;14.93;;;5.68;;
76348;SDS011;65172;46.764;15.406;2023-09-19T02:57:46;19.30;;;6.00;;
76348;SDS011;65172;46.764;15.406;2023-09-19T03:00:12;13.02;;;5.72;;
76348;SDS011;65172;46.764;15.406;2023-09-19T03:02:38;19.58;;;6.10;;
76348;SDS011;65172;46.764;15.406;2023-09-19T03:05:06;27.92;;;6.57;;
76348;SDS011;65172;46.764;15.406;2023-09-19T03:07:32;15.13;;;6.22;;
76348;SDS011;65172;46.764;15.406;2023-09-19T03:09:58;14.05;;;5.60;;
76348;SDS011;65172;46.764;15.406;2023-09-19T03:12:25;11.85;;;5.63;;
76348;SDS011;65172;46.764;15.406;2023-09-19T03:14:53;11.10;;;5.47;;
76348;SDS011;65172;46.764;15.406;2023-09-19T03:17:19;12.27;;;5.82;;
76348;SDS011;65172;46.764;15.406;2023-09-19T03:19:45;16.08;;;5.35;;
76348;SDS011;65172;46.764;15.406;2023-09-19T03:22:12;12.90;;;5.03;;
76348;SDS011;65172;46.764;15.406;2023-09-19T03:24:38;12.48;;;4.40;;
76348;SDS011;65172;46.764;15.406;2023-09-19T03:27:03;8.68;;;4.25;;
76348;SDS011;65172;46.764;15.406;2023-09-19T03:29:29;13.20;;;3.78;;
76348;SDS011;65172;46.764;15.406;2023-09-19T03:31:55;36.10;;;4.30;;
76348;SDS011;65172;46.764;15.406;2023-09-19T03:34:20;9.27;;;4.00;;
76348;SDS011;65172;46.764;15.406;2023-09-19T03:36:46;15.10;;;4.22;;
76348;SDS011;65172;46.764;15.406;2023-09-19T03:39:12;10.57;;;5.70;;
76348;SDS011;65172;46.764;15.406;2023-09-19T03:41:40;420.05;;;13.90;;
76348;SDS011;65172;46.764;15.406;2023-09-19T03:44:05;12.73;;;3.95;;
76348;SDS011;65172;46.764;15.406;2023-09-19T03:46:31;216.98;;;10.02;;
76348;SDS011;65172;46.764;15.406;2023-09-19T03:48:57;7.53;;;4.00;;
76348;SDS011;65172;46.764;15.406;2023-09-19T03:51:23;15.05;;;4.90;;
76348;SDS011;65172;46.764;15.406;2023-09-19T03:53:48;32.67;;;5.15;;
76348;SDS011;65172;46.764;15.406;2023-09-19T03:56:17;9.63;;;4.47;;
76348;SDS011;65172;46.764;15.406;2023-09-19T03:58:42;7.28;;;3.90;;
76348;SDS011;65172;46.764;15.406;2023-09-19T04:01:08;10.23;;;3.80;;
76348;SDS011;65172;46.764;15.406;2023-09-19T04:03:33;4.40;;;2.50;;
76348;SDS011;65172;46.764;15.406;2023-09-19T04:06:15;8.40;;;3.08;;
76348;SDS011;65172;46.764;15.406;2023-09-19T04:08:40;9.45;;;2.50;;
76348;SDS011;65172;46.764;15.406;2023-09-19T04:11:06;6.45;;;2.40;;
76348;SDS011;65172;46.764;15.406;2023-09-19T04:13:32;4.78;;;2.58;;
76348;SDS011;65172;46.764;15.406;2023-09-19T04:15:57;8.40;;;2.60;;
76348;SDS011;65172;46.764;15.406;2023-09-19T04:18:23;4.05;;;2.38;;
76348;SDS011;65172;46.764;15.406;2023-09-19T04:20:49;6.40;;;2.70;;
76348;SDS011;65172;46.764;15.406;2023-09-19T04:23:15;3.80;;;1.98;;
76348;SDS011;65172;46.764;15.406;2023-09-19T04:25:42;3.95;;;2.13;;
76348;SDS011;65172;46.764;15.406;2023-09-19T04:28:08;5.35;;;2.92;;
76348;SDS011;65172;46.764;15.406;2023-09-19T04:30:35;5.50;;;2.08;;
76348;SDS011;65172;46.764;15.406;2023-09-19T04:33:01;3.85;;;2.08;;
76348;SDS011;65172;46.764;15.406;2023-09-19T04:35:27;4.10;;;2.05;;
76348;SDS011;65172;46.764;15.406;2023-09-19T04:37:54;5.53;;;1.85;;
76348;SDS011;65172;46.764;15.406;2023-09-19T04:40:19;5.10;;;2.55;;
76348;SDS011;65172;46.764;15.406;2023-09-19T04:42:52;10.40;;;3.10;;
76348;SDS011;65172;46.764;15.406;2023-09-19T04:45:21;8.13;;;2.38;;
76348;SDS011;65172;46.764;15.406;2023-09-19T04:47:47;8.35;;;3.03;;
76348;SDS011;65172;46.764;15.406;2023-09-19T04:50:12;6.90;;;3.15;;
76348;SDS011;65172;46.764;15.406;2023-09-19T04:52:42;13.20;;;4.20;;
76348;SDS011;65172;46.764;15.406;2023-09-19T04:55:18;8.98;;;3.35;;
76348;SDS011;65172;46.764;15.406;2023-09-19T05:00:11;5.82;;;3.45;;
76348;SDS011;65172;46.764;15.406;2023-09-19T05:02:40;6.88;;;2.88;;
76348;SDS011;65172;46.764;15.406;2023-09-19T05:05:07;9.98;;;3.25;;
76348;SDS011;65172;46.764;15.406;2023-09-19T05:07:33;4.97;;;3.38;;
76348;SDS011;65172;46.764;15.406;2023-09-19T05:09:59;4.80;;;1.85;;
76348;SDS011;65172;46.764;15.406;2023-09-19T05:12:28;2.33;;;1.88;;
76348;SDS011;65172;46.764;15.406;2023-09-19T05:14:54;2.75;;;1.90;;
76348;SDS011;65172;46.764;15.406;2023-09-19T05:17:20;3.42;;;2.08;;
76348;SDS011;65172;46.764;15.406;2023-09-19T05:19:46;6.20;;;2.35;;
76348;SDS011;65172;46.764;15.406;2023-09-19T05:22:12;3.15;;;2.15;;
76348;SDS011;65172;46.764;15.406;2023-09-19T05:24:37;3.67;;;2.00;;
76348;SDS011;65172;46.764;15.406;2023-09-19T05:27:04;4.82;;;1.98;;
76348;SDS011;65172;46.764;15.406;2023-09-19T05:29:32;4.38;;;2.00;;
76348;SDS011;65172;46.764;15.406;2023-09-19T05:31:58;7.00;;;2.78;;
76348;SDS011;65172;46.764;15.406;2023-09-19T05:34:27;7.80;;;2.53;;
76348;SDS011;65172;46.764;15.406;2023-09-19T05:39:20;5.07;;;2.17;;
76348;SDS011;65172;46.764;15.406;2023-09-19T05:41:46;5.65;;;2.15;;
76348;SDS011;65172;46.764;15.406;2023-09-19T05:44:12;4.50;;;2.38;;
76348;SDS011;65172;46.764;15.406;2023-09-19T05:46:39;5.50;;;2.13;;
76348;SDS011;65172;46.764;15.406;2023-09-19T05:49:05;2.72;;;1.67;;
76348;SDS011;65172;46.764;15.406;2023-09-19T05:51:30;6.78;;;2.10;;
76348;SDS011;65172;46.764;15.406;2023-09-19T05:53:56;6.65;;;2.05;;
76348;SDS011;65172;46.764;15.406;2023-09-19T05:56:22;4.90;;;1.60;;
76348;SDS011;65172;46.764;15.406;2023-09-19T05:58:48;7.45;;;1.85;;
76348;SDS011;65172;46.764;15.406;2023-09-19T06:01:14;3.10;;;2.00;;
76348;SDS011;65172;46.764;15.406;2023-09-19T06:03:40;2.00;;;1.58;;
76348;SDS011;65172;46.764;15.406;2023-09-19T06:06:05;3.50;;;1.48;;
76348;SDS011;65172;46.764;15.406;2023-09-19T06:08:31;2.10;;;1.60;;
76348;SDS011;65172;46.764;15.406;2023-09-19T06:10:58;3.22;;;1.40;;
76348;SDS011;65172;46.764;15.406;2023-09-19T06:13:24;4.45;;;1.38;;
76348;SDS011;65172;46.764;15.406;2023-09-19T06:15:51;3.33;;;1.35;;
76348;SDS011;65172;46.764;15.406;2023-09-19T06:18:17;4.22;;;1.88;;
76348;SDS011;65172;46.764;15.406;2023-09-19T06:20:47;4.95;;;1.95;;
76348;SDS011;65172;46.764;15.406;2023-09-19T06:23:14;3.38;;;1.42;;
76348;SDS011;65172;46.764;15.406;2023-09-19T06:25:40;3.75;;;1.63;;
76348;SDS011;65172;46.764;15.406;2023-09-19T06:28:06;1.58;;;1.48;;
76348;SDS011;65172;46.764;15.406;2023-09-19T06:30:33;4.85;;;1.27;;
76348;SDS011;65172;46.764;15.406;2023-09-19T06:33:00;3.35;;;1.67;;
76348;SDS011;65172;46.764;15.406;2023-09-19T06:35:26;6.82;;;1.70;;
76348;SDS011;65172;46.764;15.406;2023-09-19T06:37:52;4.10;;;1.42;;
76348;SDS011;65172;46.764;15.406;2023-09-19T06:40:18;4.70;;;1.67;;
76348;SDS011;65172;46.764;15.406;2023-09-19T06:42:46;5.50;;;1.40;;
76348;SDS011;65172;46.764;15.406;2023-09-19T06:45:13;1.42;;;1.33;;
76348;SDS011;65172;46.764;15.406;2023-09-19T06:47:43;1.85;;;1.55;;
76348;SDS011;65172;46.764;15.406;2023-09-19T06:50:10;7.13;;;1.60;;
76348;SDS011;65172;46.764;15.406;2023-09-19T06:52:39;3.67;;;1.88;;
76348;SDS011;65172;46.764;15.406;2023-09-19T06:55:07;4.03;;;1.25;;
76348;SDS011;65172;46.764;15.406;2023-09-19T06:57:35;2.17;;;1.30;;
76348;SDS011;65172;46.764;15.406;2023-09-19T07:00:01;2.97;;;1.40;;
76348;SDS011;65172;46.764;15.406;2023-09-19T07:02:27;2.08;;;1.30;;
76348;SDS011;65172;46.764;15.406;2023-09-19T07:04:52;3.70;;;1.20;;
76348;SDS011;65172;46.764;15.406;2023-09-19T07:07:18;4.35;;;1.55;;
76348;SDS011;65172;46.764;15.406;2023-09-19T07:09:43;2.75;;;1.30;;
76348;SDS011;65172;46.764;15.406;2023-09-19T07:12:09;11.45;;;1.40;;
76348;SDS011;65172;46.764;15.406;2023-09-19T07:14:34;7.28;;;2.40;;
76348;SDS011;65172;46.764;15.406;2023-09-19T07:17:00;4.60;;;1.63;;
76348;SDS011;65172;46.764;15.406;2023-09-19T07:19:26;4.53;;;1.40;;
76348;SDS011;65172;46.764;15.406;2023-09-19T07:21:55;3.58;;;1.27;;
76348;SDS011;65172;46.764;15.406;2023-09-19T07:24:20;4.25;;;1.48;;
76348;SDS011;65172;46.764;15.406;2023-09-19T07:26:49;4.72;;;1.02;;
76348;SDS011;65172;46.764;15.406;2023-09-19T07:29:15;7.32;;;1.60;;
76348;SDS011;65172;46.764;15.406;2023-09-19T07:31:40;3.75;;;1.30;;
76348;SDS011;65172;46.764;15.406;2023-09-19T07:34:06;2.65;;;1.50;;
76348;SDS011;65172;46.764;15.406;2023-09-19T07:36:33;4.30;;;0.93;;
76348;SDS011;65172;46.764;15.406;2023-09-19T07:38:59;6.90;;;1.58;;
76348;SDS011;65172;46.764;15.406;2023-09-19T07:41:25;3.63;;;1.10;;
76348;SDS011;65172;46.764;15.406;2023-09-19T07:43:51;6.53;;;1.38;;
76348;SDS011;65172;46.764;15.406;2023-09-19T07:46:17;1.88;;;1.33;;
76348;SDS011;65172;46.764;15.406;2023-09-19T07:48:42;5.65;;;1.33;;
76348;SDS011;65172;46.764;15.406;2023-09-19T07:51:12;2.70;;;1.33;;
76348;SDS011;65172;46.764;15.406;2023-09-19T07:53:41;2.97;;;1.17;;
76348;SDS011;65172;46.764;15.406;2023-09-19T07:56:07;4.65;;;1.17;;
76348;SDS011;65172;46.764;15.406;2023-09-19T07:58:34;2.10;;;1.00;;
76348;SDS011;65172;46.764;15.406;2023-09-19T08:01:05;1.52;;;0.90;;
76348;SDS011;65172;46.764;15.406;2023-09-19T08:03:32;3.45;;;0.90;;
76348;SDS011;65172;46.764;15.406;2023-09-19T08:05:58;1.33;;;0.90;;
76348;SDS011;65172;46.764;15.406;2023-09-19T08:08:23;1.42;;;1.00;;
76348;SDS011;65172;46.764;15.406;2023-09-19T08:10:55;6.35;;;1.38;;
76348;SDS011;65172;46.764;15.406;2023-09-19T08:13:22;2.65;;;1.10;;
76348;SDS011;65172;46.764;15.406;2023-09-19T08:15:48;4.35;;;0.80;;
76348;SDS011;65172;46.764;15.406;2023-09-19T08:18:14;2.95;;;1.17;;
76348;SDS011;65172;46.764;15.406;2023-09-19T08:20:41;5.47;;;1.20;;
76348;SDS011;65172;46.764;15.406;2023-09-19T08:23:11;11.27;;;1.75;;
76348;SDS011;65172;46.764;15.406;2023-09-19T08:25:37;5.05;;;1.70;;
76348;SDS011;65172;46.764;15.406;2023-09-19T08:28:04;5.95;;;1.65;;
76348;SDS011;65172;46.764;15.406;2023-09-19T08:30:33;4.80;;;1.50;;
76348;SDS011;65172;46.764;15.406;2023-09-19T08:32:59;3.17;;;1.10;;
76348;SDS011;65172;46.764;15.406;2023-09-19T08:35:26;3.40;;;1.73;;
76348;SDS011;65172;46.764;15.406;2023-09-19T08:37:52;2.83;;;1.50;;
76348;SDS011;65172;46.764;15.406;2023-09-19T08:40:17;2.55;;;1.50;;
76348;SDS011;65172;46.764;15.406;2023-09-19T08:42:49;4.63;;;1.35;;
76348;SDS011;65172;46.764;15.406;2023-09-19T08:45:16;6.25;;;1.60;;
76348;SDS011;65172;46.764;15.406;2023-09-19T08:50:26;2.92;;;1.20;;
76348;SDS011;65172;46.764;15.406;2023-09-19T08:52:53;4.43;;;1.85;;
76348;SDS011;65172;46.764;15.406;2023-09-19T08:55:22;1.75;;;1.10;;
76348;SDS011;65172;46.764;15.406;2023-09-19T08:57:52;1.92;;;1.15;;
76348;SDS011;65172;46.764;15.406;2023-09-19T09:00:27;4.13;;;1.10;;
76348;SDS011;65172;46.764;15.406;2023-09-19T09:02:53;3.95;;;1.13;;
76348;SDS011;65172;46.764;15.406;2023-09-19T09:05:20;3.00;;;1.35;;
76348;SDS011;65172;46.764;15.406;2023-09-19T09:07:48;1.23;;;1.00;;
76348;SDS011;65172;46.764;15.406;2023-09-19T09:10:17;3.42;;;1.30;;
76348;SDS011;65172;46.764;15.406;2023-09-19T09:12:46;4.55;;;1.33;;
76348;SDS011;65172;46.764;15.406;2023-09-19T09:15:12;4.18;;;1.15;;
76348;SDS011;65172;46.764;15.406;2023-09-19T09:17:41;5.57;;;1.27;;
76348;SDS011;65172;46.764;15.406;2023-09-19T09:20:08;1.20;;;1.10;;
76348;SDS011;65172;46.764;15.406;2023-09-19T09:22:35;3.95;;;1.20;;
76348;SDS011;65172;46.764;15.406;2023-09-19T09:25:01;1.02;;;0.93;;
76348;SDS011;65172;46.764;15.406;2023-09-19T09:27:29;3.28;;;1.20;;
76348;SDS011;65172;46.764;15.406;2023-09-19T09:29:56;1.42;;;1.20;;
76348;SDS011;65172;46.764;15.406;2023-09-19T09:32:25;3.20;;;1.40;;
76348;SDS011;65172;46.764;15.406;2023-09-19T09:34:59;2.47;;;1.10;;
76348;SDS011;65172;46.764;15.406;2023-09-19T09:37:25;2.80;;;1.55;;
76348;SDS011;65172;46.764;15.406;2023-09-19T09:42:44;4.68;;;1.60;;
76348;SDS011;65172;46.764;15.406;2023-09-19T09:45:16;3.00;;;1.10;;
76348;SDS011;65172;46.764;15.406;2023-09-19T09:47:43;1.98;;;1.02;;
76348;SDS011;65172;46.764;15.406;2023-09-19T09:50:34;4.25;;;1.40;;
76348;SDS011;65172;46.764;15.406;2023-09-19T09:53:22;3.10;;;1.42;;
76348;SDS011;65172;46.764;15.406;2023-09-19T09:58:25;2.58;;;1.10;;
76348;SDS011;65172;46.764;15.406;2023-09-19T10:00:54;2.35;;;1.08;;
76348;SDS011;65172;46.764;15.406;2023-09-19T10:03:33;5.88;;;1.38;;
76348;SDS011;65172;46.764;15.406;2023-09-19T10:06:12;4.70;;;1.38;;
76348;SDS011;65172;46.764;15.406;2023-09-19T10:09:00;7.93;;;1.50;;
76348;SDS011;65172;46.764;15.406;2023-09-19T10:14:09;1.50;;;1.10;;
76348;SDS011;65172;46.764;15.406;2023-09-19T10:16:40;4.18;;;1.27;;
76348;SDS011;65172;46.764;15.406;2023-09-19T10:19:07;2.30;;;1.33;;
76348;SDS011;65172;46.764;15.406;2023-09-19T10:21:34;5.22;;;1.30;;
76348;SDS011;65172;46.764;15.406;2023-09-19T10:24:01;3.30;;;1.10;;
76348;SDS011;65172;46.764;15.406;2023-09-19T10:26:30;4.25;;;1.20;;
76348;SDS011;65172;46.764;15.406;2023-09-19T10:28:56;3.63;;;2.00;;
76348;SDS011;65172;46.764;15.406;2023-09-19T10:31:25;1.80;;;1.08;;
76348;SDS011;65172;46.764;15.406;2023-09-19T10:33:53;3.00;;;0.95;;
76348;SDS011;65172;46.764;15.406;2023-09-19T10:36:18;4.22;;;1.05;;
76348;SDS011;65172;46.764;15.406;2023-09-19T10:38:45;4.25;;;1.17;;
76348;SDS011;65172;46.764;15.406;2023-09-19T10:41:11;1.85;;;0.98;;
76348;SDS011;65172;46.764;15.406;2023-09-19T10:43:39;1.75;;;1.33;;
76348;SDS011;65172;46.764;15.406;2023-09-19T10:46:10;3.08;;;1.15;;
76348;SDS011;65172;46.764;15.406;2023-09-19T10:48:37;1.50;;;1.00;;
76348;SDS011;65172;46.764;15.406;2023-09-19T10:54:01;1.20;;;1.10;;
76348;SDS011;65172;46.764;15.406;2023-09-19T10:56:37;5.93;;;1.10;;
76348;SDS011;65172;46.764;15.406;2023-09-19T11:01:43;1.80;;;1.30;;
76348;SDS011;65172;46.764;15.406;2023-09-19T11:04:34;4.47;;;1.17;;
76348;SDS011;65172;46.764;15.406;2023-09-19T11:07:02;1.58;;;1.00;;
76348;SDS011;65172;46.764;15.406;2023-09-19T11:09:51;1.90;;;0.98;;
76348;SDS011;65172;46.764;15.406;2023-09-19T11:15:06;1.65;;;1.10;;
76348;SDS011;65172;46.764;15.406;2023-09-19T11:30:42;5.80;;;1.23;;
76348;SDS011;65172;46.764;15.406;2023-09-19T11:33:30;4.13;;;1.08;;
76348;SDS011;65172;46.764;15.406;2023-09-19T11:46:52;1.83;;;1.00;;
76348;SDS011;65172;46.764;15.406;2023-09-19T11:49:24;3.95;;;1.30;;
76348;SDS011;65172;46.764;15.406;2023-09-19T11:51:56;1.67;;;0.90;;
76348;SDS011;65172;46.764;15.406;2023-09-19T11:54:29;2.90;;;0.90;;
76348;SDS011;65172;46.764;15.406;2023-09-19T11:56:57;4.22;;;1.20;;
76348;SDS011;65172;46.764;15.406;2023-09-19T11:59:25;0.98;;;0.80;;
76348;SDS011;65172;46.764;15.406;2023-09-19T12:04:36;3.65;;;0.93;;
76348;SDS011;65172;46.764;15.406;2023-09-19T12:07:09;2.03;;;1.02;;
76348;SDS011;65172;46.764;15.406;2023-09-19T12:09:45;4.80;;;1.08;;
76348;SDS011;65172;46.764;15.406;2023-09-19T12:12:22;2.10;;;0.93;;
76348;SDS011;65172;46.764;15.406;2023-09-19T12:14:52;2.78;;;1.10;;
76348;SDS011;65172;46.764;15.406;2023-09-19T12:17:18;1.02;;;0.98;;
76348;SDS011;65172;46.764;15.406;2023-09-19T12:19:51;1.83;;;1.25;;
76348;SDS011;65172;46.764;15.406;2023-09-19T12:22:20;2.22;;;0.98;;
76348;SDS011;65172;46.764;15.406;2023-09-19T12:24:46;3.85;;;1.10;;
76348;SDS011;65172;46.764;15.406;2023-09-19T12:27:12;1.08;;;1.00;;
76348;SDS011;65172;46.764;15.406;2023-09-19T12:29:47;2.88;;;0.98;;
76348;SDS011;65172;46.764;15.406;2023-09-19T12:32:41;3.83;;;1.20;;
76348;SDS011;65172;46.764;15.406;2023-09-19T12:35:07;5.05;;;1.55;;
76348;SDS011;65172;46.764;15.406;2023-09-19T12:37:36;1.95;;;1.00;;
76348;SDS011;65172;46.764;15.406;2023-09-19T12:40:13;2.30;;;1.73;;
76348;SDS011;65172;46.764;15.406;2023-09-19T12:42:49;3.13;;;1.30;;
76348;SDS011;65172;46.764;15.406;2023-09-19T12:45:15;5.68;;;1.20;;
76348;SDS011;65172;46.764;15.406;2023-09-19T12:51:04;3.03;;;1.30;;
76348;SDS011;65172;46.764;15.406;2023-09-19T12:53:37;2.17;;;1.10;;
76348;SDS011;65172;46.764;15.406;2023-09-19T12:56:12;2.20;;;1.10;;
76348;SDS011;65172;46.764;15.406;2023-09-19T13:01:20;3.42;;;1.15;;
76348;SDS011;65172;46.764;15.406;2023-09-19T13:06:48;2.85;;;1.50;;
76348;SDS011;65172;46.764;15.406;2023-09-19T13:09:15;1.20;;;1.10;;
76348;SDS011;65172;46.764;15.406;2023-09-19T13:11:41;3.53;;;1.30;;
76348;SDS011;65172;46.764;15.406;2023-09-19T13:14:22;3.75;;;1.63;;
76348;SDS011;65172;46.764;15.406;2023-09-19T13:19:38;2.60;;;1.23;;
76348;SDS011;65172;46.764;15.406;2023-09-19T13:22:50;2.17;;;1.20;;
76348;SDS011;65172;46.764;15.406;2023-09-19T13:25:18;4.65;;;1.10;;
76348;SDS011;65172;46.764;15.406;2023-09-19T13:27:45;2.95;;;1.25;;
76348;SDS011;65172;46.764;15.406;2023-09-19T13:30:19;4.68;;;1.20;;
76348;SDS011;65172;46.764;15.406;2023-09-19T13:32:45;3.38;;;1.17;;
76348;SDS011;65172;46.764;15.406;2023-09-19T13:35:12;5.57;;;1.25;;
76348;SDS011;65172;46.764;15.406;2023-09-19T13:37:39;3.22;;;1.38;;
76348;SDS011;65172;46.764;15.406;2023-09-19T13:40:09;3.65;;;1.30;;
76348;SDS011;65172;46.764;15.406;2023-09-19T13:42:39;2.70;;;1.40;;
76348;SDS011;65172;46.764;15.406;2023-09-19T13:45:08;3.63;;;1.10;;
76348;SDS011;65172;46.764;15.406;2023-09-19T13:47:37;3.60;;;1.40;;
76348;SDS011;65172;46.764;15.406;2023-09-19T13:50:03;3.30;;;1.30;;
76348;SDS011;65172;46.764;15.406;2023-09-19T13:52:32;2.55;;;1.33;;
76348;SDS011;65172;46.764;15.406;2023-09-19T13:54:58;4.90;;;1.30;;
76348;SDS011;65172;46.764;15.406;2023-09-19T13:57:24;2.05;;;1.20;;
76348;SDS011;65172;46.764;15.406;2023-09-19T13:59:51;2.85;;;1.10;;
76348;SDS011;65172;46.764;15.406;2023-09-19T14:02:18;2.60;;;1.42;;
76348;SDS011;65172;46.764;15.406;2023-09-19T14:04:44;1.85;;;1.00;;
76348;SDS011;65172;46.764;15.406;2023-09-19T14:07:10;3.28;;;1.23;;
76348;SDS011;65172;46.764;15.406;2023-09-19T14:09:36;4.78;;;1.27;;
76348;SDS011;65172;46.764;15.406;2023-09-19T14:12:02;3.25;;;1.70;;
76348;SDS011;65172;46.764;15.406;2023-09-19T14:14:28;3.75;;;1.15;;
76348;SDS011;65172;46.764;15.406;2023-09-19T14:16:53;1.67;;;1.00;;
76348;SDS011;65172;46.764;15.406;2023-09-19T14:19:19;6.30;;;1.33;;
76348;SDS011;65172;46.764;15.406;2023-09-19T14:21:45;2.13;;;1.33;;
76348;SDS011;65172;46.764;15.406;2023-09-19T14:24:13;2.38;;;1.60;;
76348;SDS011;65172;46.764;15.406;2023-09-19T14:26:42;3.15;;;1.42;;
76348;SDS011;65172;46.764;15.406;2023-09-19T14:29:07;3.72;;;1.20;;
76348;SDS011;65172;46.764;15.406;2023-09-19T14:31:33;1.83;;;1.10;;
76348;SDS011;65172;46.764;15.406;2023-09-19T14:33:59;5.30;;;1.70;;
76348;SDS011;65172;46.764;15.406;2023-09-19T14:36:24;2.30;;;1.45;;
76348;SDS011;65172;46.764;15.406;2023-09-19T14:38:53;3.55;;;2.10;;
76348;SDS011;65172;46.764;15.406;2023-09-19T14:41:20;3.83;;;1.98;;
76348;SDS011;65172;46.764;15.406;2023-09-19T14:43:46;3.88;;;1.90;;
76348;SDS011;65172;46.764;15.406;2023-09-19T14:46:12;3.13;;;1.85;;
76348;SDS011;65172;46.764;15.406;2023-09-19T14:48:37;3.75;;;1.40;;
76348;SDS011;65172;46.764;15.406;2023-09-19T14:51:03;6.43;;;1.40;;
76348;SDS011;65172;46.764;15.406;2023-09-19T14:53:30;4.20;;;1.52;;
76348;SDS011;65172;46.764;15.406;2023-09-19T14:55:56;2.15;;;1.45;;
76348;SDS011;65172;46.764;15.406;2023-09-19T14:58:21;2.53;;;1.00;;
76348;SDS011;65172;46.764;15.406;2023-09-19T15:00:48;2.45;;;1.80;;
76348;SDS011;65172;46.764;15.406;2023-09-19T15:03:16;2.30;;;1.63;;
76348;SDS011;65172;46.764;15.406;2023-09-19T15:05:43;3.58;;;1.50;;
76348;SDS011;65172;46.764;15.406;2023-09-19T15:08:08;5.38;;;2.38;;
76348;SDS011;65172;46.764;15.406;2023-09-19T15:10:34;1.35;;;1.25;;
76348;SDS011;65172;46.764;15.406;2023-09-19T15:13:00;2.58;;;1.10;;
76348;SDS011;65172;46.764;15.406;2023-09-19T15:15:28;2.50;;;1.35;;
76348;SDS011;65172;46.764;15.406;2023-09-19T15:17:54;8.05;;;1.30;;
76348;SDS011;65172;46.764;15.406;2023-09-19T15:20:20;3.72;;;1.20;;
76348;SDS011;65172;46.764;15.406;2023-09-19T15:22:46;2.83;;;1.33;;
76348;SDS011;65172;46.764;15.406;2023-09-19T15:25:13;4.20;;;1.60;;
76348;SDS011;65172;46.764;15.406;2023-09-19T15:27:39;3.60;;;1.60;;
76348;SDS011;65172;46.764;15.406;2023-09-19T15:30:07;3.53;;;1.50;;
76348;SDS011;65172;46.764;15.406;2023-09-19T15:32:33;4.57;;;1.40;;
76348;SDS011;65172;46.764;15.406;2023-09-19T15:34:59;2.58;;;1.25;;
76348;SDS011;65172;46.764;15.406;2023-09-19T15:37:26;4.53;;;1.38;;
76348;SDS011;65172;46.764;15.406;2023-09-19T15:39:52;2.25;;;1.20;;
76348;SDS011;65172;46.764;15.406;2023-09-19T15:42:18;3.08;;;1.40;;
76348;SDS011;65172;46.764;15.406;2023-09-19T15:44:44;5.72;;;1.50;;
76348;SDS011;65172;46.764;15.406;2023-09-19T15:47:11;2.42;;;1.52;;
76348;SDS011;65172;46.764;15.406;2023-09-19T15:49:38;4.88;;;1.50;;
76348;SDS011;65172;46.764;15.406;2023-09-19T15:52:04;2.28;;;1.50;;
76348;SDS011;65172;46.764;15.406;2023-09-19T15:54:30;2.75;;;1.40;;
76348;SDS011;65172;46.764;15.406;2023-09-19T15:56:58;5.40;;;1.55;;
76348;SDS011;65172;46.764;15.406;2023-09-19T15:59:25;1.65;;;1.48;;
76348;SDS011;65172;46.764;15.406;2023-09-19T16:01:51;4.80;;;1.60;;
76348;SDS011;65172;46.764;15.406;2023-09-19T16:04:16;2.67;;;1.10;;
76348;SDS011;65172;46.764;15.406;2023-09-19T16:06:42;3.03;;;1.00;;